Time;durP1;ratioP1;P1;durP2;ratioP2;P2;SDS_P1;SDS_P2;PMS_P1;PMS_P2;Temp;Humidity;BMP_temperature;BMP_pressure;BME280_temperature;BME280_humidity;BME280_pressure;Samples;Min_cycle;Max_cycle;Signal;HPM_P1;HPM_P2
2021/01/17 00:01:32;;;;;;;22.50;12.83;;;;;;;;;;5070666;28;20444;-69
2021/01/17 00:03:58;;;;;;;19.80;12.37;;;;;;;;;;5073116;28;20487;-69
2021/01/17 00:06:24;;;;;;;17.00;10.30;;;;;;;;;;5070991;28;20488;-69
2021/01/17 00:08:50;;;;;;;23.90;12.10;;;;;;;;;;5073151;28;20791;-69
2021/01/17 00:11:16;;;;;;;28.20;10.70;;;;;;;;;;5072088;28;20497;-69
2021/01/17 00:13:42;;;;;;;22.43;11.17;;;;;;;;;;5052204;28;20495;-69
2021/01/17 00:16:08;;;;;;;22.90;11.67;;;;;;;;;;5053097;28;20412;-69
2021/01/17 00:18:34;;;;;;;20.50;10.07;;;;;;;;;;5071530;28;20516;-69
2021/01/17 00:21:00;;;;;;;19.33;11.30;;;;;;;;;;5073007;28;20403;-69
2021/01/17 00:23:26;;;;;;;22.73;11.10;;;;;;;;;;5070736;28;20901;-69
2021/01/17 00:25:52;;;;;;;18.37;10.00;;;;;;;;;;5073066;28;20499;-69
2021/01/17 00:28:18;;;;;;;17.57;10.50;;;;;;;;;;5057680;28;20451;-69
2021/01/17 00:30:44;;;;;;;20.87;11.50;;;;;;;;;;5053128;28;20428;-69
2021/01/17 00:33:10;;;;;;;22.60;11.87;;;;;;;;;;5059112;28;20419;-69
2021/01/17 00:35:36;;;;;;;18.47;9.57;;;;;;;;;;5052785;28;20394;-69
2021/01/17 00:38:03;;;;;;;23.37;11.00;;;;;;;;;;5052951;28;20558;-69
2021/01/17 00:40:29;;;;;;;22.03;11.27;;;;;;;;;;5072028;28;20410;-70
2021/01/17 00:42:56;;;;;;;19.10;11.70;;;;;;;;;;5070401;28;20469;-69
2021/01/17 00:45:24;;;;;;;20.60;10.90;;;;;;;;;;5072846;28;20407;-69
2021/01/17 00:47:50;;;;;;;19.97;11.40;;;;;;;;;;5071859;28;20477;-69
2021/01/17 00:50:17;;;;;;;15.80;11.70;;;;;;;;;;5072891;28;20446;-70
2021/01/17 00:52:43;;;;;;;17.50;11.10;;;;;;;;;;5072427;28;20423;-69
2021/01/17 00:55:09;;;;;;;21.43;11.40;;;;;;;;;;5072678;28;20964;-70
2021/01/17 00:57:35;;;;;;;23.43;12.77;;;;;;;;;;5071710;28;20784;-69
2021/01/17 01:00:02;;;;;;;18.83;11.17;;;;;;;;;;5073358;28;20750;-69
2021/01/17 01:02:28;;;;;;;24.90;11.73;;;;;;;;;;5066312;28;20433;-70
2021/01/17 01:04:54;;;;;;;21.80;10.70;;;;;;;;;;5053155;28;20548;-69
2021/01/17 01:07:20;;;;;;;26.90;12.37;;;;;;;;;;5057146;28;20418;-70
2021/01/17 01:09:46;;;;;;;24.10;11.93;;;;;;;;;;5072490;28;20905;-69
2021/01/17 01:12:13;;;;;;;24.50;12.10;;;;;;;;;;5068419;28;20424;-69
2021/01/17 01:14:39;;;;;;;24.60;11.60;;;;;;;;;;5052701;28;20412;-69
2021/01/17 01:17:05;;;;;;;21.40;11.63;;;;;;;;;;5054640;28;20439;-70
2021/01/17 01:19:31;;;;;;;17.90;10.93;;;;;;;;;;5072315;28;20478;-69
2021/01/17 01:21:57;;;;;;;19.97;10.77;;;;;;;;;;5070132;28;20798;-69
2021/01/17 01:24:23;;;;;;;16.33;10.90;;;;;;;;;;5072640;28;20461;-69
2021/01/17 01:26:49;;;;;;;27.30;12.57;;;;;;;;;;5075233;28;20780;-69
2021/01/17 01:29:15;;;;;;;19.50;11.70;;;;;;;;;;5075853;28;20518;-69
2021/01/17 01:31:45;;;;;;;18.47;10.47;;;;;;;;;;5076447;28;20413;-69
2021/01/17 01:34:11;;;;;;;22.03;11.60;;;;;;;;;;5074682;28;20999;-69
2021/01/17 01:36:38;;;;;;;17.40;11.30;;;;;;;;;;5076206;28;20408;-70
2021/01/17 01:39:07;;;;;;;19.43;10.83;;;;;;;;;;5074700;28;21037;-69
2021/01/17 01:41:35;;;;;;;17.93;10.73;;;;;;;;;;5075888;28;20460;-69
2021/01/17 01:44:01;;;;;;;16.30;9.47;;;;;;;;;;5074644;28;20450;-70
2021/01/17 01:46:28;;;;;;;14.33;10.77;;;;;;;;;;5075836;28;20394;-70
2021/01/17 01:48:55;;;;;;;18.83;9.90;;;;;;;;;;5058809;28;20513;-70
2021/01/17 01:51:25;;;;;;;18.53;10.47;;;;;;;;;;5055620;28;20410;-69
2021/01/17 01:53:52;;;;;;;18.80;9.37;;;;;;;;;;5056946;28;20458;-69
2021/01/17 01:56:18;;;;;;;20.47;10.77;;;;;;;;;;5055591;28;20407;-69
2021/01/17 01:58:44;;;;;;;20.80;11.07;;;;;;;;;;5069144;28;20504;-69
2021/01/17 02:01:10;;;;;;;22.30;12.90;;;;;;;;;;5075685;28;20412;-70
2021/01/17 02:03:37;;;;;;;24.30;11.70;;;;;;;;;;5074321;28;20456;-69
2021/01/17 02:06:03;;;;;;;19.63;10.27;;;;;;;;;;5075659;28;20406;-69
2021/01/17 02:08:35;;;;;;;18.17;10.70;;;;;;;;;;5073608;28;20461;-69
2021/01/17 02:11:04;;;;;;;17.33;9.53;;;;;;;;;;5075570;28;20415;-69
2021/01/17 02:13:40;;;;;;;20.80;11.10;;;;;;;;;;5074160;28;20428;-69
2021/01/17 02:16:07;;;;;;;17.83;11.70;;;;;;;;;;5075515;28;20416;-69
2021/01/17 02:18:40;;;;;;;15.50;8.90;;;;;;;;;;5062755;28;20456;-69
2021/01/17 02:21:07;;;;;;;19.63;12.20;;;;;;;;;;5055079;28;20542;-69
2021/01/17 02:23:40;;;;;;;22.10;11.63;;;;;;;;;;5066598;28;20554;-69
2021/01/17 02:26:06;;;;;;;19.63;10.80;;;;;;;;;;5068324;28;20426;-69
2021/01/17 02:28:32;;;;;;;24.07;10.93;;;;;;;;;;5066277;28;20915;-69
2021/01/17 02:30:58;;;;;;;18.37;10.07;;;;;;;;;;5073612;28;20419;-69
2021/01/17 02:33:26;;;;;;;20.27;11.37;;;;;;;;;;5072805;28;20480;-69
2021/01/17 02:35:54;;;;;;;19.90;10.60;;;;;;;;;;5074562;28;20416;-70
2021/01/17 02:38:35;;;;;;;19.10;11.67;;;;;;;;;;5073422;28;20766;-69
2021/01/17 02:41:08;;;;;;;17.97;9.40;;;;;;;;;;5075009;28;20414;-70
2021/01/17 02:43:35;;;;;;;17.73;10.20;;;;;;;;;;5073572;28;20470;-69
2021/01/17 02:46:01;;;;;;;15.47;9.57;;;;;;;;;;5074573;28;20923;-69
2021/01/17 02:48:27;;;;;;;17.27;10.60;;;;;;;;;;5068568;28;20477;-69
2021/01/17 02:50:53;;;;;;;17.60;9.20;;;;;;;;;;5053196;28;20902;-69
2021/01/17 02:53:23;;;;;;;15.13;9.10;;;;;;;;;;5058029;28;20415;-69
2021/01/17 02:55:51;;;;;;;13.50;8.87;;;;;;;;;;5074732;28;20391;-69
2021/01/17 02:58:17;;;;;;;18.60;10.00;;;;;;;;;;5073998;28;20458;-69
2021/01/17 03:00:46;;;;;;;15.40;9.00;;;;;;;;;;5073216;28;20431;-70
2021/01/17 03:03:14;;;;;;;14.00;8.60;;;;;;;;;;5072493;28;20894;-69
2021/01/17 03:05:41;;;;;;;18.83;8.57;;;;;;;;;;5072553;28;20415;-69
2021/01/17 03:08:07;;;;;;;22.53;10.20;;;;;;;;;;5071886;28;20476;-69
2021/01/17 03:10:34;;;;;;;19.60;11.07;;;;;;;;;;5055172;28;20479;-70
2021/01/17 03:13:01;;;;;;;20.17;8.77;;;;;;;;;;5055251;28;20411;-70
2021/01/17 03:15:29;;;;;;;19.57;9.67;;;;;;;;;;5075200;28;20407;-70
2021/01/17 03:17:55;;;;;;;19.43;9.60;;;;;;;;;;5074104;28;20426;-70
2021/01/17 03:20:22;;;;;;;18.37;9.73;;;;;;;;;;5063599;28;20418;-70
2021/01/17 03:22:48;;;;;;;15.77;9.63;;;;;;;;;;5055142;28;20427;-69
2021/01/17 03:25:14;;;;;;;18.10;9.57;;;;;;;;;;5072499;28;20890;-69
2021/01/17 03:27:40;;;;;;;14.93;8.80;;;;;;;;;;5073786;28;20411;-69
2021/01/17 03:30:06;;;;;;;14.90;8.50;;;;;;;;;;5073052;28;20425;-69
2021/01/17 03:32:32;;;;;;;17.33;9.37;;;;;;;;;;5073922;28;20827;-69
2021/01/17 03:34:58;;;;;;;11.50;7.83;;;;;;;;;;5056803;28;20478;-69
2021/01/17 03:37:24;;;;;;;15.90;9.53;;;;;;;;;;5053991;28;20439;-69
2021/01/17 03:39:50;;;;;;;13.60;9.20;;;;;;;;;;5072472;28;20604;-69
2021/01/17 03:42:16;;;;;;;16.07;9.57;;;;;;;;;;5073908;28;20404;-69
2021/01/17 03:44:42;;;;;;;14.70;9.10;;;;;;;;;;5059649;28;20461;-69
2021/01/17 03:47:09;;;;;;;13.67;7.80;;;;;;;;;;5053485;28;20407;-69
2021/01/17 03:49:35;;;;;;;13.83;8.47;;;;;;;;;;5053100;28;20979;-69
2021/01/17 03:52:01;;;;;;;19.30;9.10;;;;;;;;;;5053645;28;20399;-69
2021/01/17 03:54:27;;;;;;;14.03;7.90;;;;;;;;;;5063882;28;20423;-69
2021/01/17 03:56:53;;;;;;;12.83;8.53;;;;;;;;;;5073330;28;20747;-69
2021/01/17 03:59:20;;;;;;;13.30;7.20;;;;;;;;;;5072061;28;20472;-69
2021/01/17 04:01:46;;;;;;;14.70;8.17;;;;;;;;;;5073492;28;20405;-69
2021/01/17 04:04:12;;;;;;;19.13;8.90;;;;;;;;;;5072257;28;20515;-69
2021/01/17 04:06:38;;;;;;;12.63;7.17;;;;;;;;;;5073189;28;20408;-69
2021/01/17 04:09:07;;;;;;;9.70;6.93;;;;;;;;;;5072305;28;20448;-69
2021/01/17 04:11:34;;;;;;;14.80;7.73;;;;;;;;;;5072091;28;20431;-69
2021/01/17 04:14:00;;;;;;;11.23;6.87;;;;;;;;;;5065917;28;20430;-69
2021/01/17 04:16:26;;;;;;;12.13;7.67;;;;;;;;;;5053109;28;20487;-69
2021/01/17 04:18:52;;;;;;;14.60;7.50;;;;;;;;;;5057632;28;20844;-69
2021/01/17 04:21:18;;;;;;;10.23;6.63;;;;;;;;;;5073315;28;20488;-69
2021/01/17 04:23:44;;;;;;;12.50;7.53;;;;;;;;;;5069008;28;20587;-69
2021/01/17 04:26:10;;;;;;;11.13;6.73;;;;;;;;;;5053201;28;20418;-69
2021/01/17 04:28:36;;;;;;;13.67;8.77;;;;;;;;;;5054904;28;20442;-69
2021/01/17 04:31:03;;;;;;;11.50;7.30;;;;;;;;;;5072901;28;20395;-69
2021/01/17 04:33:29;;;;;;;12.60;7.63;;;;;;;;;;5071807;28;20401;-69
2021/01/17 04:35:55;;;;;;;13.10;7.40;;;;;;;;;;5073210;28;20416;-69
2021/01/17 04:38:21;;;;;;;13.10;7.20;;;;;;;;;;5071910;28;20867;-69
2021/01/17 04:40:47;;;;;;;10.30;6.47;;;;;;;;;;5073158;28;20410;-69
2021/01/17 04:43:20;;;;;;;12.10;7.20;;;;;;;;;;5071809;28;20423;-69
2021/01/17 04:45:47;;;;;;;12.90;7.83;;;;;;;;;;5072907;28;20408;-69
2021/01/17 04:48:14;;;;;;;12.87;7.20;;;;;;;;;;5070201;28;20481;-69
2021/01/17 04:50:42;;;;;;;17.17;7.83;;;;;;;;;;5053174;28;20428;-69
2021/01/17 04:53:10;;;;;;;13.27;7.70;;;;;;;;;;5052761;28;20404;-69
2021/01/17 04:55:36;;;;;;;13.53;7.50;;;;;;;;;;5053002;28;20396;-69
2021/01/17 04:58:09;;;;;;;11.90;6.90;;;;;;;;;;5052228;28;20982;-69
2021/01/17 05:00:39;;;;;;;15.57;7.43;;;;;;;;;;5054329;28;20420;-69
2021/01/17 05:03:19;;;;;;;13.70;7.90;;;;;;;;;;5056205;28;20397;-69
2021/01/17 05:06:04;;;;;;;14.90;7.53;;;;;;;;;;5056636;28;20387;-70
2021/01/17 05:08:31;;;;;;;10.63;7.43;;;;;;;;;;5059375;28;20484;-69
2021/01/17 05:11:01;;;;;;;11.43;7.27;;;;;;;;;;5076367;28;20406;-69
2021/01/17 05:13:38;;;;;;;12.70;7.53;;;;;;;;;;5075656;28;20451;-69
2021/01/17 05:16:05;;;;;;;11.10;6.83;;;;;;;;;;5076254;28;20484;-69
2021/01/17 05:18:32;;;;;;;12.20;7.40;;;;;;;;;;5074715;28;20477;-69
2021/01/17 05:20:59;;;;;;;10.80;6.20;;;;;;;;;;5076357;28;20872;-69
2021/01/17 05:23:29;;;;;;;12.67;6.33;;;;;;;;;;5075282;28;20450;-69
2021/01/17 05:25:56;;;;;;;12.07;6.40;;;;;;;;;;5076331;28;20411;-69
2021/01/17 05:28:22;;;;;;;10.63;6.50;;;;;;;;;;5074265;28;20448;-69
2021/01/17 05:30:49;;;;;;;11.10;7.00;;;;;;;;;;5056004;28;20404;-69
2021/01/17 05:33:16;;;;;;;8.10;5.50;;;;;;;;;;5055833;28;20826;-69
2021/01/17 05:35:42;;;;;;;10.50;7.10;;;;;;;;;;5075751;28;20415;-69
2021/01/17 05:38:08;;;;;;;10.43;5.50;;;;;;;;;;5076217;28;20811;-69
2021/01/17 05:40:34;;;;;;;12.10;7.17;;;;;;;;;;5075014;28;20427;-69
2021/01/17 05:43:00;;;;;;;9.40;5.93;;;;;;;;;;5075799;28;20490;-69
2021/01/17 05:45:26;;;;;;;9.40;6.53;;;;;;;;;;5057844;28;20428;-69
2021/01/17 05:48:00;;;;;;;11.07;6.87;;;;;;;;;;5055733;28;20427;-69
2021/01/17 05:50:26;;;;;;;9.67;5.50;;;;;;;;;;5060387;28;20849;-69
2021/01/17 05:53:00;;;;;;;10.13;5.83;;;;;;;;;;5075764;28;20411;-69
2021/01/17 05:55:29;;;;;;;9.07;6.20;;;;;;;;;;5070167;28;20432;-69
2021/01/17 05:57:55;;;;;;;11.73;6.10;;;;;;;;;;5055756;28;20460;-70
2021/01/17 06:00:34;;;;;;;8.23;6.30;;;;;;;;;;5071297;28;20439;-69
2021/01/17 06:03:00;;;;;;;12.53;7.00;;;;;;;;;;5075601;28;20408;-69
2021/01/17 06:05:26;;;;;;;9.50;5.57;;;;;;;;;;5074395;28;20454;-69
2021/01/17 06:07:53;;;;;;;8.83;6.43;;;;;;;;;;5075574;28;20480;-69
2021/01/17 06:10:24;;;;;;;11.17;6.50;;;;;;;;;;5059669;28;20446;-69
2021/01/17 06:12:51;;;;;;;12.60;6.03;;;;;;;;;;5054024;28;20416;-69
2021/01/17 06:15:17;;;;;;;8.90;5.83;;;;;;;;;;5069614;28;20511;-69
2021/01/17 06:17:47;;;;;;;9.67;6.30;;;;;;;;;;5075557;28;20447;-69
2021/01/17 06:20:21;;;;;;;12.90;7.03;;;;;;;;;;5074523;28;20430;-69
2021/01/17 06:22:47;;;;;;;8.53;4.70;;;;;;;;;;5075155;28;20422;-69
2021/01/17 06:25:13;;;;;;;10.60;5.77;;;;;;;;;;5072979;28;20465;-69
2021/01/17 06:27:39;;;;;;;9.33;5.10;;;;;;;;;;5075049;28;20430;-69
2021/01/17 06:30:17;;;;;;;12.97;5.90;;;;;;;;;;5074439;28;20429;-69
2021/01/17 06:32:45;;;;;;;10.73;5.43;;;;;;;;;;5075260;28;20398;-69
2021/01/17 06:35:12;;;;;;;8.33;5.23;;;;;;;;;;5073828;28;20955;-69
2021/01/17 06:37:38;;;;;;;11.73;5.80;;;;;;;;;;5074988;28;20811;-69
2021/01/17 06:40:07;;;;;;;7.13;5.63;;;;;;;;;;5073794;28;20462;-70
2021/01/17 06:42:33;;;;;;;7.90;4.80;;;;;;;;;;5075145;28;20441;-69
2021/01/17 06:44:59;;;;;;;7.30;4.93;;;;;;;;;;5063165;28;20471;-69
2021/01/17 06:47:27;;;;;;;7.20;4.80;;;;;;;;;;5055891;28;20410;-70
2021/01/17 06:49:55;;;;;;;9.43;5.53;;;;;;;;;;5072279;28;20420;-69
2021/01/17 06:52:21;;;;;;;7.13;4.43;;;;;;;;;;5074798;28;20412;-69
2021/01/17 06:54:51;;;;;;;9.40;5.13;;;;;;;;;;5073500;28;20438;-70
2021/01/17 06:57:18;;;;;;;8.07;5.60;;;;;;;;;;5070718;28;20510;-69
2021/01/17 06:59:45;;;;;;;11.87;5.53;;;;;;;;;;5061941;28;20561;-69
2021/01/17 07:02:16;;;;;;;6.27;4.20;;;;;;;;;;5074674;28;20407;-69
2021/01/17 07:04:54;;;;;;;6.70;3.90;;;;;;;;;;5065870;28;20451;-69
2021/01/17 07:07:39;;;;;;;6.83;4.47;;;;;;;;;;5054517;28;20409;-69
2021/01/17 07:10:07;;;;;;;4.97;3.80;;;;;;;;;;5064656;28;20515;-69
2021/01/17 07:12:51;;;;;;;7.87;4.37;;;;;;;;;;5074207;28;20401;-69
2021/01/17 07:15:23;;;;;;;8.50;4.70;;;;;;;;;;5061605;28;20436;-69
2021/01/17 07:17:50;;;;;;;7.17;4.93;;;;;;;;;;5054330;28;20424;-69
2021/01/17 07:20:16;;;;;;;5.73;3.90;;;;;;;;;;5065369;28;20430;-69
2021/01/17 07:22:43;;;;;;;9.00;5.00;;;;;;;;;;5073743;28;20403;-69
2021/01/17 07:25:09;;;;;;;7.77;4.80;;;;;;;;;;5072866;28;20459;-69
2021/01/17 07:27:54;;;;;;;7.30;4.10;;;;;;;;;;5073936;28;20469;-69
2021/01/17 07:30:21;;;;;;;10.13;5.20;;;;;;;;;;5073116;28;20434;-69
2021/01/17 07:32:54;;;;;;;8.40;4.83;;;;;;;;;;5074224;28;20403;-69
2021/01/17 07:35:24;;;;;;;8.80;4.40;;;;;;;;;;5072597;28;20427;-69
2021/01/17 07:37:53;;;;;;;6.97;4.30;;;;;;;;;;5073791;28;20429;-69
2021/01/17 07:40:49;;;;;;;7.93;5.43;;;;;;;;;;5072373;28;20427;-69
2021/01/17 07:43:08;;;;;;;9.37;5.03;;;;;;;;;;5073507;28;20442;-69
2021/01/17 07:45:38;;;;;;;8.30;5.77;;;;;;;;;;5072703;28;20419;-69
2021/01/17 07:48:06;;;;;;;7.63;5.30;;;;;;;;;;5073693;28;20426;-69
2021/01/17 07:50:35;;;;;;;7.80;4.70;;;;;;;;;;5071689;28;20419;-69
2021/01/17 07:53:03;;;;;;;7.10;4.60;;;;;;;;;;5074659;28;20398;-70
2021/01/17 07:55:29;;;;;;;10.10;5.40;;;;;;;;;;5072911;28;20936;-69
2021/01/17 07:57:56;;;;;;;27.60;10.57;;;;;;;;;;5074238;28;20546;-69
2021/01/17 08:00:25;;;;;;;9.97;4.93;;;;;;;;;;5067849;28;20504;-69
2021/01/17 08:02:52;;;;;;;6.80;3.73;;;;;;;;;;5053602;28;20433;-69
2021/01/17 08:05:18;;;;;;;6.60;3.90;;;;;;;;;;5053635;28;20451;-69
2021/01/17 08:07:44;;;;;;;7.73;4.77;;;;;;;;;;5053344;28;20404;-69
2021/01/17 08:10:10;;;;;;;4.80;3.80;;;;;;;;;;5057505;28;20419;-69
2021/01/17 08:12:37;;;;;;;9.00;4.70;;;;;;;;;;5080225;28;20408;-69
2021/01/17 08:15:16;;;;;;;6.00;4.20;;;;;;;;;;5074424;28;20433;-69
2021/01/17 08:17:42;;;;;;;7.40;4.40;;;;;;;;;;5056833;28;20907;-69
2021/01/17 08:20:09;;;;;;;5.60;3.20;;;;;;;;;;5057351;28;20428;-69
2021/01/17 08:22:35;;;;;;;8.87;5.40;;;;;;;;;;5072825;28;20916;-68
2021/01/17 08:25:10;;;;;;;7.00;4.07;;;;;;;;;;5071000;28;20467;-69
2021/01/17 08:27:39;;;;;;;7.03;4.68;;;;;;;;;;5072935;28;20931;-71
2021/01/17 08:30:08;;;;;;;7.30;4.30;;;;;;;;;;5072748;28;20184;-71
2021/01/17 08:32:41;;;;;;;6.90;4.07;;;;;;;;;;5071895;28;20415;-70
2021/01/17 08:35:23;;;;;;;5.47;3.40;;;;;;;;;;5073748;28;20402;-69
2021/01/17 08:37:50;;;;;;;7.30;4.67;;;;;;;;;;5075043;28;20447;-68
2021/01/17 08:40:39;;;;;;;5.97;4.00;;;;;;;;;;5076839;28;20905;-69
2021/01/17 08:43:09;;;;;;;7.40;5.87;;;;;;;;;;5066963;28;20457;-67
2021/01/17 08:45:36;;;;;;;9.70;4.20;;;;;;;;;;5075910;28;20492;-67
2021/01/17 08:48:20;;;;;;;5.47;4.50;;;;;;;;;;5076666;28;20431;-67
2021/01/17 08:50:53;;;;;;;7.30;3.93;;;;;;;;;;5074426;28;20423;-67
2021/01/17 08:53:22;;;;;;;8.90;4.00;;;;;;;;;;5077591;28;20749;-67
2021/01/17 08:55:49;;;;;;;7.37;4.57;;;;;;;;;;5067270;28;20442;-68
2021/01/17 08:58:35;;;;;;;9.43;4.53;;;;;;;;;;5075806;28;20866;-68
2021/01/17 09:01:11;;;;;;;7.30;4.77;;;;;;;;;;5057735;28;20431;-67
2021/01/17 09:03:42;;;;;;;7.30;4.97;;;;;;;;;;5076561;28;20469;-67
2021/01/17 09:06:08;;;;;;;10.00;4.53;;;;;;;;;;5074773;28;20414;-67
2021/01/17 09:08:35;;;;;;;6.27;4.27;;;;;;;;;;5076221;28;20570;-66
2021/01/17 09:11:02;;;;;;;9.27;5.60;;;;;;;;;;5073860;28;20430;-68
2021/01/17 09:13:29;;;;;;;6.97;4.73;;;;;;;;;;5076519;28;20481;-68
2021/01/17 09:15:55;;;;;;;7.97;4.90;;;;;;;;;;5073587;28;20809;-68
2021/01/17 09:18:24;;;;;;;8.60;5.80;;;;;;;;;;5056265;28;20424;-68
2021/01/17 09:20:54;;;;;;;8.97;6.20;;;;;;;;;;5056041;28;20404;-68
2021/01/17 09:23:20;;;;;;;11.93;5.93;;;;;;;;;;5056144;28;20405;-68
2021/01/17 09:25:58;;;;;;;13.23;7.10;;;;;;;;;;5056221;28;20408;-68
2021/01/17 09:28:24;;;;;;;10.17;6.53;;;;;;;;;;5056177;28;20435;-68
2021/01/17 09:30:51;;;;;;;13.67;8.30;;;;;;;;;;5057114;28;20596;-68
2021/01/17 09:33:18;;;;;;;11.80;8.20;;;;;;;;;;5076291;28;20404;-68
2021/01/17 09:35:45;;;;;;;12.90;8.43;;;;;;;;;;5075242;28;20403;-68
2021/01/17 09:38:15;;;;;;;16.83;9.03;;;;;;;;;;5056154;28;20785;-68
2021/01/17 09:40:42;;;;;;;19.97;11.20;;;;;;;;;;5059133;28;20432;-68
2021/01/17 09:43:08;;;;;;;18.57;11.33;;;;;;;;;;5075401;28;20425;-68
2021/01/17 09:45:34;;;;;;;21.00;11.93;;;;;;;;;;5075435;28;20424;-68
2021/01/17 09:48:00;;;;;;;14.10;10.30;;;;;;;;;;5074922;28;20503;-68
2021/01/17 09:50:30;;;;;;;19.80;10.93;;;;;;;;;;5075991;28;20410;-68
2021/01/17 09:53:04;;;;;;;15.97;10.03;;;;;;;;;;5057229;28;20777;-68
2021/01/17 09:55:30;;;;;;;17.80;9.50;;;;;;;;;;5055989;28;20401;-68
2021/01/17 09:57:56;;;;;;;19.50;11.13;;;;;;;;;;5072501;28;21063;-68
2021/01/17 10:00:22;;;;;;;16.63;10.80;;;;;;;;;;5076094;28;20864;-68
2021/01/17 10:02:49;;;;;;;13.73;9.80;;;;;;;;;;5074684;28;20904;-68
2021/01/17 10:05:25;;;;;;;17.60;10.50;;;;;;;;;;5075597;28;20459;-68
2021/01/17 10:07:58;;;;;;;18.97;10.80;;;;;;;;;;5074655;28;20442;-68
2021/01/17 10:10:24;;;;;;;17.83;9.87;;;;;;;;;;5074243;28;20416;-68
2021/01/17 10:12:50;;;;;;;17.00;10.07;;;;;;;;;;5074720;28;20443;-68
2021/01/17 10:15:17;;;;;;;19.27;8.83;;;;;;;;;;5073177;28;20436;-68
2021/01/17 10:17:47;;;;;;;19.67;9.77;;;;;;;;;;5074383;28;20424;-68
2021/01/17 10:20:13;;;;;;;20.17;10.60;;;;;;;;;;5075280;28;20411;-68
2021/01/17 10:22:39;;;;;;;14.43;11.03;;;;;;;;;;5074266;28;20424;-68
2021/01/17 10:25:05;;;;;;;23.87;10.93;;;;;;;;;;5075211;28;20464;-68
2021/01/17 10:27:31;;;;;;;20.87;10.90;;;;;;;;;;5074303;28;20403;-68
2021/01/17 10:29:57;;;;;;;18.60;10.37;;;;;;;;;;5075028;28;20409;-68
2021/01/17 10:32:29;;;;;;;18.53;11.40;;;;;;;;;;5073145;28;20939;-68
2021/01/17 10:34:55;;;;;;;22.73;12.10;;;;;;;;;;5075327;28;20423;-68
2021/01/17 10:37:21;;;;;;;16.93;10.63;;;;;;;;;;5068423;28;20783;-68
2021/01/17 10:39:47;;;;;;;18.00;10.73;;;;;;;;;;5054939;28;20431;-68
2021/01/17 10:42:17;;;;;;;23.90;11.57;;;;;;;;;;5055259;28;20783;-68
2021/01/17 10:45:01;;;;;;;17.37;10.53;;;;;;;;;;5054852;28;20463;-68
2021/01/17 10:47:41;;;;;;;20.53;11.40;;;;;;;;;;5061531;28;20472;-68
2021/01/17 10:50:10;;;;;;;15.93;10.53;;;;;;;;;;5074902;28;20395;-68
2021/01/17 10:52:39;;;;;;;18.20;10.43;;;;;;;;;;5074233;28;20418;-68
2021/01/17 10:55:06;;;;;;;22.83;11.50;;;;;;;;;;5073582;28;20463;-68
2021/01/17 10:57:35;;;;;;;22.73;10.13;;;;;;;;;;5072939;28;20422;-68
2021/01/17 11:00:05;;;;;;;22.23;11.47;;;;;;;;;;5073453;28;20423;-68
2021/01/17 11:02:31;;;;;;;20.97;11.87;;;;;;;;;;5061045;28;20424;-68
2021/01/17 11:04:57;;;;;;;19.20;11.37;;;;;;;;;;5074506;28;20465;-68
2021/01/17 11:07:27;;;;;;;16.00;10.20;;;;;;;;;;5071649;28;20414;-68
2021/01/17 11:09:53;;;;;;;16.83;10.60;;;;;;;;;;5054353;28;20459;-68
2021/01/17 11:12:32;;;;;;;18.23;11.10;;;;;;;;;;5054545;28;20511;-68
2021/01/17 11:15:07;;;;;;;18.40;10.60;;;;;;;;;;5054513;28;20847;-68
2021/01/17 11:17:33;;;;;;;18.87;10.53;;;;;;;;;;5054354;28;20423;-68
2021/01/17 11:20:03;;;;;;;20.77;11.20;;;;;;;;;;5054281;28;20459;-68
2021/01/17 11:22:30;;;;;;;17.53;9.90;;;;;;;;;;5053582;28;20428;-68
2021/01/17 11:24:56;;;;;;;19.50;11.53;;;;;;;;;;5053861;28;20545;-68
2021/01/17 11:27:22;;;;;;;25.00;12.70;;;;;;;;;;5058187;28;20484;-68
2021/01/17 11:29:48;;;;;;;21.53;11.53;;;;;;;;;;5073736;28;20428;-68
2021/01/17 11:32:14;;;;;;;21.50;12.00;;;;;;;;;;5069722;28;20940;-68
2021/01/17 11:34:42;;;;;;;23.10;13.27;;;;;;;;;;5053742;28;20881;-68
2021/01/17 11:37:08;;;;;;;18.23;11.23;;;;;;;;;;5055597;28;20509;-68
2021/01/17 11:39:35;;;;;;;23.73;12.80;;;;;;;;;;5073710;28;20489;-68
2021/01/17 11:42:01;;;;;;;19.57;11.53;;;;;;;;;;5072485;28;20410;-68
2021/01/17 11:44:31;;;;;;;18.60;10.37;;;;;;;;;;5073854;28;20455;-68
2021/01/17 11:47:00;;;;;;;17.23;10.97;;;;;;;;;;5072667;28;20456;-68
2021/01/17 11:49:27;;;;;;;20.27;10.50;;;;;;;;;;5053386;28;20457;-68
2021/01/17 11:51:53;;;;;;;25.60;13.30;;;;;;;;;;5053625;28;20865;-68
2021/01/17 11:54:21;;;;;;;20.67;12.27;;;;;;;;;;5053864;28;20795;-68
2021/01/17 11:56:48;;;;;;;22.77;12.50;;;;;;;;;;5053660;28;20404;-68
2021/01/17 11:59:27;;;;;;;19.37;11.73;;;;;;;;;;5053074;28;20884;-68
2021/01/17 12:01:53;;;;;;;21.17;11.53;;;;;;;;;;5053356;28;20488;-68
2021/01/17 12:04:23;;;;;;;20.67;12.87;;;;;;;;;;5071893;28;20459;-68
2021/01/17 12:07:01;;;;;;;20.70;12.67;;;;;;;;;;5060393;28;20477;-68
2021/01/17 12:09:27;;;;;;;17.13;10.63;;;;;;;;;;5053424;28;20452;-68
2021/01/17 12:11:53;;;;;;;20.03;11.03;;;;;;;;;;5053442;28;20411;-68
2021/01/17 12:14:21;;;;;;;19.00;10.77;;;;;;;;;;5071495;28;20427;-68
2021/01/17 12:16:51;;;;;;;14.70;9.67;;;;;;;;;;5073444;28;20416;-68
2021/01/17 12:19:18;;;;;;;16.57;9.03;;;;;;;;;;5056150;28;20453;-68
2021/01/17 12:21:44;;;;;;;12.57;8.90;;;;;;;;;;5053308;28;20408;-68
2021/01/17 12:24:12;;;;;;;15.60;8.70;;;;;;;;;;5054101;28;20457;-68
2021/01/17 12:26:38;;;;;;;13.50;8.53;;;;;;;;;;5052913;28;20415;-68
2021/01/17 12:29:05;;;;;;;14.53;8.13;;;;;;;;;;5054942;28;20890;-68
2021/01/17 12:31:31;;;;;;;13.47;8.40;;;;;;;;;;5053452;28;20463;-68
2021/01/17 12:33:58;;;;;;;17.27;8.77;;;;;;;;;;5067216;28;20528;-68
2021/01/17 12:36:25;;;;;;;14.77;8.50;;;;;;;;;;5073240;28;20422;-68
2021/01/17 12:38:52;;;;;;;13.30;9.37;;;;;;;;;;5058815;28;20483;-68
2021/01/17 12:41:19;;;;;;;18.50;9.87;;;;;;;;;;5070549;28;20431;-68
2021/01/17 12:43:46;;;;;;;14.37;9.20;;;;;;;;;;5071980;28;21040;-68
2021/01/17 12:46:13;;;;;;;18.33;9.53;;;;;;;;;;5073127;28;20767;-68
2021/01/17 12:48:39;;;;;;;15.40;9.67;;;;;;;;;;5071521;28;20478;-68
2021/01/17 12:51:05;;;;;;;16.53;10.30;;;;;;;;;;5072869;28;20431;-68
2021/01/17 12:53:31;;;;;;;15.43;8.20;;;;;;;;;;5071533;28;20428;-68
2021/01/17 12:55:57;;;;;;;15.50;9.63;;;;;;;;;;5073045;28;20400;-68
2021/01/17 12:58:24;;;;;;;15.40;8.07;;;;;;;;;;5062697;28;20506;-69
2021/01/17 13:00:50;;;;;;;16.87;7.90;;;;;;;;;;5052889;28;20416;-68
2021/01/17 13:03:16;;;;;;;14.97;8.50;;;;;;;;;;5060598;28;20423;-68
2021/01/17 13:05:42;;;;;;;17.30;8.50;;;;;;;;;;5072556;28;20411;-68
2021/01/17 13:08:08;;;;;;;17.63;8.57;;;;;;;;;;5071804;28;20443;-68
2021/01/17 13:10:34;;;;;;;19.20;10.20;;;;;;;;;;5072583;28;20407;-68
2021/01/17 13:13:00;;;;;;;19.70;9.80;;;;;;;;;;5071625;28;20947;-68
2021/01/17 13:15:27;;;;;;;13.40;7.90;;;;;;;;;;5072854;28;20494;-68
2021/01/17 13:17:54;;;;;;;17.33;10.00;;;;;;;;;;5071069;28;20446;-68
2021/01/17 13:20:20;;;;;;;14.20;8.23;;;;;;;;;;5072929;28;20406;-69
2021/01/17 13:22:46;;;;;;;15.47;8.40;;;;;;;;;;5074905;28;20469;-68
2021/01/17 13:25:14;;;;;;;18.17;10.23;;;;;;;;;;5076650;28;20858;-68
2021/01/17 13:27:40;;;;;;;15.13;8.90;;;;;;;;;;5074466;28;20522;-68
2021/01/17 13:30:07;;;;;;;18.47;9.63;;;;;;;;;;5076252;28;20397;-68
2021/01/17 13:32:34;;;;;;;20.17;9.47;;;;;;;;;;5075242;28;20390;-68
2021/01/17 13:35:00;;;;;;;10.90;7.80;;;;;;;;;;5076631;28;20493;-68
2021/01/17 13:37:26;;;;;;;15.03;7.67;;;;;;;;;;5075660;28;20431;-68
2021/01/17 13:39:52;;;;;;;16.60;9.33;;;;;;;;;;5091175;28;20973;-69
2021/01/17 13:42:18;;;;;;;14.20;8.50;;;;;;;;;;5075957;28;20402;-68
2021/01/17 13:44:44;;;;;;;14.30;9.17;;;;;;;;;;5075266;28;20466;-68
2021/01/17 13:47:10;;;;;;;14.20;8.33;;;;;;;;;;5074961;28;20431;-68
2021/01/17 13:49:36;;;;;;;21.10;8.30;;;;;;;;;;5074827;28;20951;-68
2021/01/17 13:52:05;;;;;;;11.17;6.60;;;;;;;;;;5076088;28;20403;-68
2021/01/17 13:54:32;;;;;;;14.37;6.37;;;;;;;;;;5074301;28;20427;-68
2021/01/17 13:56:58;;;;;;;19.17;6.80;;;;;;;;;;5075886;28;20408;-68
2021/01/17 13:59:25;;;;;;;7.23;5.60;;;;;;;;;;5073591;28;20893;-68
2021/01/17 14:01:51;;;;;;;12.17;6.00;;;;;;;;;;5075504;28;20424;-68
2021/01/17 14:04:17;;;;;;;8.87;5.63;;;;;;;;;;5074787;28;20562;-68
2021/01/17 14:06:43;;;;;;;10.03;6.30;;;;;;;;;;5074033;28;20962;-69
2021/01/17 14:09:10;;;;;;;8.80;5.60;;;;;;;;;;5073374;28;20493;-69
2021/01/17 14:11:36;;;;;;;11.37;6.33;;;;;;;;;;5075297;28;20399;-70
2021/01/17 14:14:02;;;;;;;10.43;5.77;;;;;;;;;;5074435;28;20511;-67
2021/01/17 14:16:28;;;;;;;8.43;5.13;;;;;;;;;;5075035;28;20454;-67
2021/01/17 14:18:54;;;;;;;9.90;5.40;;;;;;;;;;5073314;28;20455;-67
2021/01/17 14:21:20;;;;;;;7.50;5.03;;;;;;;;;;5075188;28;20420;-67
2021/01/17 14:23:46;;;;;;;8.03;4.53;;;;;;;;;;5073936;28;20455;-69
2021/01/17 14:26:12;;;;;;;8.50;4.70;;;;;;;;;;5075391;28;20462;-69
2021/01/17 14:28:38;;;;;;;8.80;5.27;;;;;;;;;;5074191;28;20502;-67
2021/01/17 14:31:04;;;;;;;9.60;4.80;;;;;;;;;;5074941;28;20438;-67
2021/01/17 14:33:30;;;;;;;8.70;5.63;;;;;;;;;;5072856;28;20419;-69